createdAt,value
2019-02-04T00:00:44.705Z,-0.50
2019-02-04T00:03:17.229Z,-0.60
2019-02-04T00:05:46.117Z,-0.60
2019-02-04T00:08:17.873Z,-0.60
2019-02-04T00:10:50.252Z,-0.60
2019-02-04T00:13:18.929Z,-0.60
2019-02-04T00:15:47.828Z,-0.70
2019-02-04T00:18:16.814Z,-0.70
2019-02-04T00:20:48.444Z,-0.70
2019-02-04T00:23:17.744Z,-0.70
2019-02-04T00:25:49.016Z,-0.70
2019-02-04T00:28:17.904Z,-0.70
2019-02-04T00:30:46.666Z,-0.70
2019-02-04T00:33:15.456Z,-0.70
2019-02-04T00:35:44.376Z,-0.70
2019-02-04T00:38:15.347Z,-0.70
2019-02-04T00:40:46.268Z,-0.70
2019-02-04T00:43:14.736Z,-0.70
2019-02-04T00:45:45.773Z,-0.70
2019-02-04T00:48:14.661Z,-0.70
2019-02-04T00:50:43.554Z,-0.70
2019-02-04T00:53:12.448Z,-0.70
2019-02-04T00:55:41.334Z,-0.70
2019-02-04T00:58:10.431Z,-0.70
2019-02-04T01:00:40.145Z,-0.60
2019-02-04T01:03:09.010Z,-0.60
2019-02-04T01:05:37.720Z,-0.60
2019-02-04T01:08:06.607Z,-0.60
2019-02-04T01:10:35.499Z,-0.60
2019-02-04T01:13:04.265Z,-0.60
2019-02-04T01:15:33.458Z,-0.60
2019-02-04T01:18:02.373Z,-0.70
2019-02-04T01:20:31.476Z,-0.70
2019-02-04T01:23:00.261Z,-0.70
2019-02-04T01:25:29.254Z,-0.70
2019-02-04T01:27:58.141Z,-0.60
2019-02-04T01:30:27.033Z,-0.60
2019-02-04T01:32:55.924Z,-0.40
2019-02-04T01:35:24.824Z,-0.50
2019-02-04T01:37:53.581Z,-0.40
2019-02-04T01:40:24.515Z,-0.30
2019-02-04T01:42:53.999Z,-0.30
2019-02-04T01:45:25.801Z,-0.20
2019-02-04T01:47:54.694Z,-0.10
2019-02-04T01:50:24.749Z,-0.10
2019-02-04T01:52:53.703Z,-0.10
2019-02-04T01:55:22.904Z,0.00
2019-02-04T01:57:53.636Z,0.00
2019-02-04T02:00:28.710Z,0.10
2019-02-04T02:02:57.765Z,0.10
2019-02-04T02:05:26.629Z,0.00
2019-02-04T02:07:56.089Z,0.10
2019-02-04T02:10:27.817Z,0.10
2019-02-04T02:12:56.785Z,0.20
2019-02-04T02:15:25.871Z,0.20
2019-02-04T02:17:55.008Z,0.20
2019-02-04T02:20:26.530Z,0.20
2019-02-04T02:22:55.547Z,0.30
2019-02-04T02:25:24.468Z,0.30
2019-02-04T02:27:53.406Z,0.20
2019-02-04T02:30:25.783Z,0.20
2019-02-04T02:32:54.590Z,0.20
2019-02-04T02:35:23.380Z,0.20
2019-02-04T02:37:53.133Z,0.30
2019-02-04T02:40:26.850Z,0.20
2019-02-04T02:42:55.346Z,0.20
2019-02-04T02:45:24.266Z,0.10
2019-02-04T02:47:52.963Z,0.10
2019-02-04T02:50:22.063Z,0.10
2019-02-04T02:52:50.940Z,0.10
2019-02-04T02:55:20.240Z,0.00
2019-02-04T02:57:49.011Z,0.10
2019-02-04T03:00:23.224Z,0.10
2019-02-04T03:02:53.380Z,0.10
2019-02-04T03:05:22.561Z,0.10
2019-02-04T03:07:51.658Z,0.00
2019-02-04T03:10:29.045Z,0.00
2019-02-04T03:12:57.935Z,0.00
2019-02-04T03:15:26.824Z,-0.10
2019-02-04T03:17:55.929Z,-0.10
2019-02-04T03:20:25.018Z,-0.20
2019-02-04T03:22:53.703Z,-0.30
2019-02-04T03:25:23.414Z,-0.30
2019-02-04T03:27:52.307Z,-0.40
2019-02-04T03:30:25.273Z,-0.40
2019-02-04T03:32:54.183Z,-0.50
2019-02-04T03:35:24.176Z,-0.60
2019-02-04T03:37:54.832Z,-0.70
2019-02-04T03:40:26.388Z,-0.70
2019-02-04T03:42:55.066Z,-0.80
2019-02-04T03:45:23.829Z,-0.90
2019-02-04T03:48:04.499Z,-0.80
2019-02-04T03:50:24.963Z,-0.80
2019-02-04T03:52:54.394Z,-0.80
2019-02-04T03:55:23.213Z,-0.80
2019-02-04T03:57:52.101Z,-0.80
2019-02-04T04:00:29.595Z,-0.80
2019-02-04T04:02:58.351Z,-0.70
2019-02-04T04:05:27.549Z,-0.70
2019-02-04T04:07:59.515Z,-0.70
2019-02-04T04:10:28.427Z,-0.70
2019-02-04T04:12:57.396Z,-0.60
2019-02-04T04:15:27.131Z,-0.60
2019-02-04T04:17:55.916Z,-0.50
2019-02-04T04:20:24.813Z,-0.50
2019-02-04T04:22:55.326Z,-0.50
2019-02-04T04:25:24.128Z,-0.50
2019-02-04T04:27:53.016Z,-0.50
2019-02-04T04:30:24.441Z,-0.50
2019-02-04T04:32:53.874Z,-0.50
2019-02-04T04:35:22.730Z,-0.50
2019-02-04T04:37:51.727Z,-0.40
2019-02-04T04:40:20.523Z,-0.30
2019-02-04T04:42:49.331Z,-0.30
2019-02-04T04:45:22.643Z,-0.20
2019-02-04T04:47:51.922Z,-0.20
2019-02-04T04:50:21.017Z,-0.20
2019-02-04T04:52:51.774Z,-0.20
2019-02-04T04:55:25.331Z,-0.20
2019-02-04T04:57:54.432Z,-0.20
2019-02-04T05:00:29.035Z,-0.20
2019-02-04T05:02:58.598Z,-0.20
2019-02-04T05:05:28.594Z,-0.20
2019-02-04T05:07:57.597Z,-0.20
2019-02-04T05:10:26.320Z,-0.20
2019-02-04T05:12:55.063Z,-0.20
2019-02-04T05:15:26.110Z,-0.20
2019-02-04T05:17:56.072Z,-0.20
2019-02-04T05:20:25.194Z,-0.20
2019-02-04T05:22:55.253Z,-0.30
2019-02-04T05:25:24.122Z,-0.30
2019-02-04T05:27:53.321Z,-0.30
2019-02-04T05:30:23.870Z,-0.30
2019-02-04T05:32:54.787Z,-0.40
2019-02-04T05:35:23.682Z,-0.40
2019-02-04T05:37:52.750Z,-0.40
2019-02-04T05:40:21.665Z,-0.40
2019-02-04T05:42:50.862Z,-0.40
2019-02-04T05:45:20.837Z,-0.40
2019-02-04T05:47:49.539Z,-0.40
2019-02-04T05:50:20.000Z,-0.50
2019-02-04T05:52:49.345Z,-0.50
2019-02-04T05:55:21.868Z,-0.50
2019-02-04T05:57:50.947Z,-0.50
2019-02-04T06:00:24.343Z,-0.50
2019-02-04T06:02:53.251Z,-0.50
2019-02-04T06:05:22.218Z,-0.50
2019-02-04T06:07:51.237Z,-0.50
2019-02-04T06:10:20.618Z,-0.50
2019-02-04T06:12:50.950Z,-0.60
2019-02-04T06:15:25.712Z,-0.60
2019-02-04T06:17:54.463Z,-0.60
2019-02-04T06:20:26.173Z,-0.70
2019-02-04T06:22:55.438Z,-0.80
2019-02-04T06:25:24.235Z,-0.90
2019-02-04T06:27:53.267Z,-0.80
2019-02-04T06:30:22.210Z,-0.80
2019-02-04T06:32:51.101Z,-0.90
2019-02-04T06:35:20.194Z,-0.80
2019-02-04T06:37:49.689Z,-0.90
2019-02-04T06:40:19.785Z,-0.90
2019-02-04T06:42:48.710Z,-0.80
2019-02-04T06:45:20.264Z,-0.90
2019-02-04T06:47:49.281Z,-1.00
2019-02-04T06:50:22.225Z,-1.00
2019-02-04T06:52:50.917Z,-0.90
2019-02-04T06:55:33.421Z,-1.00
2019-02-04T06:58:02.438Z,-1.00
2019-02-04T07:00:31.429Z,-1.10
2019-02-04T07:03:02.163Z,-1.00
2019-02-04T07:05:43.239Z,-1.10
2019-02-04T07:08:02.709Z,-1.10
2019-02-04T07:10:31.595Z,-1.00
2019-02-04T07:13:00.358Z,-1.00
2019-02-04T07:15:30.807Z,-1.00
2019-02-04T07:18:01.635Z,-1.10
2019-02-04T07:20:30.638Z,-1.20
2019-02-04T07:23:02.454Z,-1.20
2019-02-04T07:25:31.412Z,-1.10
2019-02-04T07:28:00.282Z,-1.10
2019-02-04T07:30:29.249Z,-1.10
2019-02-04T07:32:58.270Z,-1.10
2019-02-04T07:35:27.222Z,-1.10
2019-02-04T07:37:56.253Z,-1.10
2019-02-04T07:40:35.616Z,-1.10
2019-02-04T07:43:04.557Z,-1.00
2019-02-04T07:45:33.921Z,-1.00
2019-02-04T07:48:04.103Z,-0.90
2019-02-04T07:50:32.894Z,-0.90
2019-02-04T07:53:01.887Z,-0.90
2019-02-04T07:55:30.676Z,-0.80
2019-02-04T07:57:59.548Z,-0.80
2019-02-04T08:00:33.037Z,-0.80
2019-02-04T08:03:02.158Z,-0.80
2019-02-04T08:05:31.461Z,-0.70
2019-02-04T08:08:00.966Z,-0.60
2019-02-04T08:10:31.036Z,-0.60
2019-02-04T08:13:01.824Z,-0.60
2019-02-04T08:15:38.517Z,-0.60
2019-02-04T08:18:12.297Z,-0.60
2019-02-04T08:20:41.186Z,-0.60
2019-02-04T08:23:13.039Z,-0.60
2019-02-04T08:25:42.252Z,-0.50
2019-02-04T08:28:11.413Z,-0.40
2019-02-04T08:30:40.545Z,-0.30
2019-02-04T08:33:09.490Z,-0.20
2019-02-04T08:35:38.528Z,-0.20
2019-02-04T08:38:07.784Z,-0.20
2019-02-04T08:40:37.537Z,0.00
2019-02-04T08:43:06.842Z,0.10
2019-02-04T08:45:35.603Z,0.20
2019-02-04T08:48:05.891Z,0.20
2019-02-04T08:50:34.717Z,0.40
2019-02-04T08:53:05.780Z,0.50
2019-02-04T08:55:36.790Z,0.70
2019-02-04T08:58:06.322Z,0.70
2019-02-04T09:00:36.107Z,0.60
2019-02-04T09:03:06.023Z,0.70
2019-02-04T09:05:34.787Z,0.70
2019-02-04T09:08:03.933Z,0.70
2019-02-04T09:10:36.302Z,0.90
2019-02-04T09:13:05.153Z,0.80
2019-02-04T09:15:34.085Z,0.50
2019-02-04T09:18:02.866Z,0.60
2019-02-04T09:20:38.630Z,0.70
2019-02-04T09:23:07.409Z,1.10
2019-02-04T09:25:38.027Z,1.40
2019-02-04T09:28:06.936Z,1.40
2019-02-04T09:30:35.825Z,1.70
2019-02-04T09:33:05.595Z,1.80
2019-02-04T09:35:35.555Z,2.20
2019-02-04T09:38:04.660Z,2.40
2019-02-04T09:40:36.478Z,2.50
2019-02-04T09:43:08.935Z,2.10
2019-02-04T09:45:38.357Z,2.10
2019-02-04T09:48:10.612Z,2.20
2019-02-04T09:50:41.811Z,1.80
2019-02-04T09:53:11.099Z,1.70
2019-02-04T09:55:40.040Z,1.50
2019-02-04T09:58:09.235Z,1.60
2019-02-04T10:00:39.549Z,1.50
2019-02-04T10:03:11.333Z,1.50
2019-02-04T10:05:43.553Z,1.80
2019-02-04T10:08:16.782Z,1.90
2019-02-04T10:10:48.250Z,1.90
2019-02-04T10:13:17.010Z,1.90
2019-02-04T10:15:46.293Z,2.00
2019-02-04T10:18:21.923Z,2.00
2019-02-04T10:20:50.709Z,2.20
2019-02-04T10:23:23.683Z,2.70
2019-02-04T10:25:52.664Z,3.20
2019-02-04T10:28:23.842Z,3.70
2019-02-04T10:30:52.729Z,4.00
2019-02-04T10:33:21.878Z,4.20
2019-02-04T10:35:50.940Z,4.20
2019-02-04T10:38:19.953Z,4.00
2019-02-04T10:40:49.076Z,3.50
2019-02-04T10:43:17.884Z,3.40
2019-02-04T10:45:46.857Z,3.30
2019-02-04T10:48:16.186Z,3.50
2019-02-04T10:50:46.684Z,3.50
2019-02-04T10:53:17.453Z,3.60
2019-02-04T10:55:46.268Z,4.20
2019-02-04T10:58:15.371Z,4.70
2019-02-04T11:00:44.723Z,4.80
2019-02-04T11:03:15.260Z,4.90
2019-02-04T11:05:50.518Z,5.10
2019-02-04T11:08:19.604Z,4.80
2019-02-04T11:10:50.747Z,4.60
2019-02-04T11:13:21.596Z,4.40
2019-02-04T11:15:52.959Z,4.20
2019-02-04T11:18:22.021Z,4.10
2019-02-04T11:20:58.040Z,4.00
2019-02-04T11:23:21.349Z,4.10
2019-02-04T11:25:50.346Z,4.20
2019-02-04T11:28:19.937Z,4.00
2019-02-04T11:30:52.744Z,3.90
2019-02-04T11:33:21.790Z,4.00
2019-02-04T11:35:50.832Z,4.10
2019-02-04T11:38:19.654Z,4.30
2019-02-04T11:40:51.999Z,4.50
2019-02-04T11:43:20.753Z,4.50
2019-02-04T11:45:49.636Z,4.40
2019-02-04T11:48:18.873Z,4.10
2019-02-04T11:50:48.849Z,3.90
2019-02-04T11:53:18.575Z,4.00
2019-02-04T11:55:50.002Z,4.10
2019-02-04T11:58:18.820Z,4.00
2019-02-04T12:00:51.194Z,4.00
2019-02-04T12:03:20.277Z,4.00
2019-02-04T12:05:49.025Z,4.00
2019-02-04T12:08:17.854Z,3.90
2019-02-04T12:10:49.865Z,3.80
2019-02-04T12:13:18.800Z,4.00
2019-02-04T12:15:51.053Z,4.10
2019-02-04T12:18:24.353Z,4.10
2019-02-04T12:20:53.416Z,4.10
2019-02-04T12:23:24.540Z,4.10
2019-02-04T12:25:56.182Z,4.00
2019-02-04T12:28:25.020Z,4.10
2019-02-04T12:30:56.842Z,4.10
2019-02-04T12:33:25.333Z,4.00
2019-02-04T12:35:54.144Z,3.70
2019-02-04T12:38:24.311Z,3.60
2019-02-04T12:40:52.985Z,3.60
2019-02-04T12:43:22.277Z,3.60
2019-02-04T12:45:56.980Z,3.50
2019-02-04T12:48:26.720Z,3.50
2019-02-04T12:51:00.213Z,3.50
2019-02-04T12:53:30.756Z,3.50
2019-02-04T12:55:59.638Z,3.50
2019-02-04T12:58:28.413Z,3.60
2019-02-04T13:00:57.433Z,3.50
2019-02-04T13:03:26.196Z,3.50
2019-02-04T13:05:55.136Z,3.50
2019-02-04T13:08:24.721Z,3.40
2019-02-04T13:10:53.338Z,3.50
2019-02-04T13:13:24.868Z,3.40
2019-02-04T13:15:53.849Z,3.40
2019-02-04T13:18:23.826Z,3.40
2019-02-04T13:20:52.583Z,3.40
2019-02-04T13:23:21.410Z,3.40
2019-02-04T13:25:50.211Z,3.40
2019-02-04T13:28:21.533Z,3.30
2019-02-04T13:30:50.723Z,3.30
2019-02-04T13:33:20.224Z,3.20
2019-02-04T13:35:49.653Z,3.20
2019-02-04T13:38:21.947Z,3.20
2019-02-04T13:40:50.749Z,3.20
2019-02-04T13:43:22.438Z,3.20
2019-02-04T13:45:51.294Z,3.20
2019-02-04T13:48:20.093Z,3.30
2019-02-04T13:50:48.953Z,3.40
2019-02-04T13:53:17.936Z,3.50
2019-02-04T13:55:47.770Z,3.40
2019-02-04T13:58:21.744Z,3.40
2019-02-04T14:00:54.885Z,3.30
2019-02-04T14:03:26.319Z,3.30
2019-02-04T14:05:58.387Z,3.20
2019-02-04T14:08:28.689Z,3.10
2019-02-04T14:10:57.787Z,3.00
2019-02-04T14:13:31.055Z,3.00
2019-02-04T14:15:57.618Z,3.00
2019-02-04T14:18:26.733Z,3.00
2019-02-04T14:20:58.170Z,3.10
2019-02-04T14:23:27.933Z,3.10
2019-02-04T14:25:57.073Z,3.10
2019-02-04T14:28:25.955Z,3.10
2019-02-04T14:30:56.134Z,3.10
2019-02-04T14:33:28.911Z,3.10
2019-02-04T14:35:57.971Z,3.10
2019-02-04T14:38:28.295Z,3.00
2019-02-04T14:40:57.060Z,3.00
2019-02-04T14:43:29.157Z,2.90
2019-02-04T14:46:12.835Z,2.80
2019-02-04T14:48:44.788Z,2.70
2019-02-04T14:51:41.856Z,2.70
2019-02-04T14:54:22.381Z,2.70
2019-02-04T14:56:57.539Z,2.60
2019-02-04T14:59:30.349Z,2.50
2019-02-04T15:02:11.140Z,2.60
2019-02-04T15:05:05.993Z,2.50
2019-02-04T15:07:58.703Z,2.50
2019-02-04T15:10:49.533Z,2.50
2019-02-04T15:13:46.971Z,2.40
2019-02-04T15:16:29.792Z,2.40
2019-02-04T15:19:23.737Z,2.40
2019-02-04T15:21:58.900Z,2.50
2019-02-04T15:24:44.036Z,2.50
2019-02-04T15:27:33.407Z,2.40
2019-02-04T15:30:16.558Z,2.50
2019-02-04T15:32:54.367Z,2.40
2019-02-04T15:35:26.044Z,2.40
2019-02-04T15:38:10.159Z,2.40
2019-02-04T15:41:04.970Z,2.30
2019-02-04T15:43:50.152Z,2.30
2019-02-04T15:46:36.540Z,2.20
2019-02-04T15:49:22.669Z,2.20
2019-02-04T15:51:55.592Z,2.30
2019-02-04T15:54:24.650Z,2.20
2019-02-04T15:56:55.236Z,2.30
2019-02-04T15:59:23.993Z,2.30
2019-02-04T16:01:56.098Z,2.30
2019-02-04T16:04:33.056Z,2.20
2019-02-04T16:07:02.304Z,2.10
2019-02-04T16:09:33.444Z,2.10
2019-02-04T16:12:05.494Z,2.10
2019-02-04T16:14:34.761Z,2.10
2019-02-04T16:17:09.157Z,2.10
2019-02-04T16:19:45.592Z,2.10
2019-02-04T16:22:17.423Z,2.10
2019-02-04T16:24:48.982Z,2.00
2019-02-04T16:27:17.749Z,2.10
2019-02-04T16:29:46.565Z,2.10
2019-02-04T16:32:15.868Z,2.10
2019-02-04T16:34:47.721Z,2.10
2019-02-04T16:37:16.611Z,2.10
2019-02-04T16:39:45.684Z,2.10
2019-02-04T16:42:15.923Z,2.00
2019-02-04T16:44:46.360Z,2.10
2019-02-04T16:47:15.257Z,2.00
2019-02-04T16:49:44.341Z,2.00
2019-02-04T16:52:13.393Z,2.00
2019-02-04T16:54:44.246Z,1.90
2019-02-04T16:57:13.379Z,2.00
2019-02-04T16:59:43.466Z,2.00
2019-02-04T17:02:13.736Z,2.00
2019-02-04T17:04:45.875Z,2.00
2019-02-04T17:07:17.226Z,2.00
2019-02-04T17:09:46.190Z,2.00
2019-02-04T17:12:16.718Z,2.00
2019-02-04T17:14:48.656Z,2.00
2019-02-04T17:17:22.623Z,2.00
2019-02-04T17:19:54.292Z,1.90
2019-02-04T17:22:23.037Z,1.90
2019-02-04T17:24:51.806Z,1.90
2019-02-04T17:27:21.196Z,1.90
2019-02-04T17:29:50.053Z,1.90
2019-02-04T17:32:20.332Z,1.80
2019-02-04T17:34:50.425Z,1.80
2019-02-04T17:37:19.305Z,1.70
2019-02-04T17:39:50.886Z,1.70
2019-02-04T17:42:20.590Z,1.70
2019-02-04T17:45:00.000Z,1.70
2019-02-04T17:47:28.838Z,1.60
2019-02-04T17:50:00.728Z,1.60
2019-02-04T17:52:29.465Z,1.60
2019-02-04T17:54:58.197Z,1.60
2019-02-04T17:57:27.197Z,1.60
2019-02-04T18:00:04.084Z,1.60
2019-02-04T18:02:33.228Z,1.60
2019-02-04T18:05:02.497Z,1.60
2019-02-04T18:07:39.739Z,1.50
2019-02-04T18:10:18.153Z,1.60
2019-02-04T18:12:42.304Z,1.60
2019-02-04T18:15:13.934Z,1.60
2019-02-04T18:17:42.666Z,1.60
2019-02-04T18:20:16.848Z,1.60
2019-02-04T18:22:45.770Z,1.60
2019-02-04T18:25:21.813Z,1.60
2019-02-04T18:27:50.921Z,1.50
2019-02-04T18:30:22.144Z,1.60
2019-02-04T18:32:52.084Z,1.60
2019-02-04T18:35:24.301Z,1.60
2019-02-04T18:37:56.573Z,1.60
2019-02-04T18:40:25.371Z,1.60
2019-02-04T18:42:59.458Z,1.60
2019-02-04T18:45:37.148Z,1.60
2019-02-04T18:48:07.587Z,1.60
2019-02-04T18:50:39.844Z,1.60
2019-02-04T18:53:14.274Z,1.50
2019-02-04T18:55:46.387Z,1.50
2019-02-04T18:58:16.275Z,1.50
2019-02-04T19:00:48.463Z,1.50
2019-02-04T19:03:18.412Z,1.50
2019-02-04T19:05:47.217Z,1.50
2019-02-04T19:08:31.975Z,1.60
2019-02-04T19:11:05.885Z,1.50
2019-02-04T19:13:36.375Z,1.50
2019-02-04T19:16:09.083Z,1.50
2019-02-04T19:18:39.559Z,1.50
2019-02-04T19:21:08.917Z,1.50
2019-02-04T19:23:37.651Z,1.50
2019-02-04T19:26:06.593Z,1.50
2019-02-04T19:28:40.199Z,1.50
2019-02-04T19:31:14.387Z,1.50
2019-02-04T19:33:43.194Z,1.50
2019-02-04T19:36:18.554Z,1.50
2019-02-04T19:38:47.449Z,1.50
2019-02-04T19:41:26.056Z,1.50
2019-02-04T19:43:54.773Z,1.40
2019-02-04T19:46:23.680Z,1.40
2019-02-04T19:48:52.308Z,1.50
2019-02-04T19:51:27.734Z,1.40
2019-02-04T19:53:56.706Z,1.50
2019-02-04T19:56:28.718Z,1.50
2019-02-04T19:59:04.501Z,1.60
2019-02-04T20:01:33.158Z,1.50
2019-02-04T20:04:02.034Z,1.50
2019-02-04T20:06:30.868Z,1.60
2019-02-04T20:09:05.231Z,1.60
2019-02-04T20:11:39.748Z,1.60
2019-02-04T20:14:09.079Z,1.60
2019-02-04T20:16:44.124Z,1.60
2019-02-04T20:19:17.818Z,1.70
2019-02-04T20:21:46.245Z,1.70
2019-02-04T20:24:19.579Z,1.70
2019-02-04T20:26:48.293Z,1.70
2019-02-04T20:29:17.213Z,1.80
2019-02-04T20:31:45.800Z,1.80
2019-02-04T20:34:14.701Z,1.80
2019-02-04T20:36:46.090Z,1.80
2019-02-04T20:39:15.001Z,1.90
2019-02-04T20:41:43.929Z,1.90
2019-02-04T20:44:12.925Z,1.90
2019-02-04T20:46:41.677Z,1.90
2019-02-04T20:49:13.475Z,1.90
2019-02-04T20:51:42.313Z,2.00
2019-02-04T20:54:19.703Z,2.00
2019-02-04T20:56:44.076Z,2.00
2019-02-04T20:59:21.157Z,1.90
2019-02-04T21:01:51.306Z,1.90
2019-02-04T21:04:20.241Z,1.90
2019-02-04T21:06:56.373Z,1.90
2019-02-04T21:09:25.067Z,1.90
2019-02-04T21:11:53.985Z,1.90
2019-02-04T21:14:24.160Z,1.90
2019-02-04T21:16:52.997Z,1.90
2019-02-04T21:19:23.800Z,1.90
2019-02-04T21:21:56.016Z,2.00
2019-02-04T21:24:29.212Z,2.00
2019-02-04T21:27:02.398Z,2.00
2019-02-04T21:29:33.860Z,2.00
2019-02-04T21:32:02.509Z,2.00
2019-02-04T21:34:33.077Z,2.10
2019-02-04T21:37:04.193Z,2.10
2019-02-04T21:39:32.361Z,2.10
2019-02-04T21:42:05.815Z,2.00
2019-02-04T21:44:34.792Z,2.00
2019-02-04T21:47:03.434Z,2.10
2019-02-04T21:49:36.450Z,2.10
2019-02-04T21:52:07.275Z,2.10
2019-02-04T21:54:38.830Z,2.10
2019-02-04T21:57:07.731Z,2.10
2019-02-04T21:59:40.617Z,2.10
2019-02-04T22:02:12.238Z,2.10
2019-02-04T22:04:44.556Z,2.20
2019-02-04T22:07:13.626Z,2.10
2019-02-04T22:09:42.315Z,2.20
2019-02-04T22:12:14.112Z,2.20
2019-02-04T22:14:42.680Z,2.10
2019-02-04T22:17:13.608Z,2.10
2019-02-04T22:19:49.100Z,2.10
2019-02-04T22:22:18.190Z,2.20
2019-02-04T22:24:46.808Z,2.20
2019-02-04T22:27:20.215Z,2.10
2019-02-04T22:29:49.074Z,2.10
2019-02-04T22:32:20.955Z,2.10
2019-02-04T22:34:49.931Z,2.20
2019-02-04T22:37:18.792Z,2.20
2019-02-04T22:39:47.695Z,2.20
2019-02-04T22:42:16.435Z,2.20
2019-02-04T22:44:48.239Z,2.20
2019-02-04T22:47:17.592Z,2.20
2019-02-04T22:49:46.257Z,2.20
2019-02-04T22:52:14.904Z,2.20
2019-02-04T22:54:43.551Z,2.20
2019-02-04T22:57:17.523Z,2.20
2019-02-04T22:59:46.223Z,2.10
2019-02-04T23:02:15.433Z,2.10
2019-02-04T23:04:48.437Z,2.10
2019-02-04T23:07:18.770Z,2.10
2019-02-04T23:09:52.345Z,2.10
